createdAt,value
2018-09-27T00:00:52.017Z,99.90
2018-09-27T00:02:56.917Z,99.90
2018-09-27T00:05:01.800Z,99.90
2018-09-27T00:07:06.967Z,99.90
2018-09-27T00:09:11.889Z,99.90
2018-09-27T00:11:16.712Z,99.90
2018-09-27T00:13:21.532Z,99.90
2018-09-27T00:15:26.407Z,99.90
2018-09-27T00:17:31.113Z,99.90
2018-09-27T00:19:35.959Z,99.90
2018-09-27T00:21:40.745Z,99.90
2018-09-27T00:23:45.565Z,99.90
2018-09-27T00:25:51.003Z,99.90
2018-09-27T00:27:55.909Z,99.90
2018-09-27T00:30:00.694Z,99.90
2018-09-27T00:32:05.728Z,99.90
2018-09-27T00:34:10.647Z,99.90
2018-09-27T00:36:15.527Z,99.90
2018-09-27T00:38:20.779Z,99.90
2018-09-27T00:40:25.579Z,99.90
2018-09-27T00:42:30.574Z,99.90
2018-09-27T00:44:35.687Z,99.90
2018-09-27T00:46:40.672Z,99.90
2018-09-27T00:48:45.630Z,99.90
2018-09-27T00:50:50.413Z,99.90
2018-09-27T00:52:55.112Z,99.90
2018-09-27T00:54:59.814Z,99.90
2018-09-27T00:57:04.540Z,99.90
2018-09-27T00:59:09.167Z,99.90
2018-09-27T01:01:13.971Z,99.90
2018-09-27T01:03:18.669Z,99.90
2018-09-27T01:05:23.340Z,99.90
2018-09-27T01:07:28.257Z,99.90
2018-09-27T01:09:33.359Z,99.90
2018-09-27T01:11:38.209Z,99.90
2018-09-27T01:13:42.813Z,99.90
2018-09-27T01:15:47.469Z,99.90
2018-09-27T01:17:52.074Z,99.90
2018-09-27T01:19:56.764Z,99.90
2018-09-27T01:22:01.581Z,99.90
2018-09-27T01:24:06.334Z,99.90
2018-09-27T01:26:11.186Z,99.90
2018-09-27T01:28:16.304Z,99.90
2018-09-27T01:30:21.008Z,99.90
2018-09-27T01:32:25.722Z,99.90
2018-09-27T01:34:30.450Z,99.90
2018-09-27T01:36:35.184Z,99.90
2018-09-27T01:38:39.966Z,99.90
2018-09-27T01:40:45.048Z,99.90
2018-09-27T01:42:49.702Z,99.90
2018-09-27T01:44:54.471Z,99.90
2018-09-27T01:46:59.403Z,99.90
2018-09-27T01:49:04.079Z,99.90
2018-09-27T01:51:08.877Z,99.90
2018-09-27T01:53:13.623Z,99.90
2018-09-27T01:55:18.223Z,99.90
2018-09-27T01:57:22.887Z,99.90
2018-09-27T01:59:27.569Z,99.90
2018-09-27T02:01:32.203Z,99.90
2018-09-27T02:03:36.978Z,99.90
2018-09-27T02:05:41.874Z,99.90
2018-09-27T02:07:46.581Z,99.90
2018-09-27T02:09:51.225Z,99.90
2018-09-27T02:11:56.145Z,99.90
2018-09-27T02:14:00.754Z,99.90
2018-09-27T02:16:05.331Z,99.90
2018-09-27T02:18:10.133Z,99.90
2018-09-27T02:20:14.833Z,99.90
2018-09-27T02:22:19.449Z,99.90
2018-09-27T02:24:24.102Z,99.90
2018-09-27T02:26:28.787Z,99.90
2018-09-27T02:28:33.415Z,99.90
2018-09-27T02:30:38.212Z,99.90
2018-09-27T02:32:42.797Z,99.90
2018-09-27T02:34:47.372Z,99.90
2018-09-27T02:36:52.144Z,99.90
2018-09-27T02:38:56.941Z,99.90
2018-09-27T02:41:01.764Z,99.90
2018-09-27T02:43:06.437Z,99.90
2018-09-27T02:45:11.078Z,99.90
2018-09-27T02:47:15.763Z,99.90
2018-09-27T02:49:20.411Z,99.90
2018-09-27T02:51:25.215Z,99.90
2018-09-27T02:53:30.001Z,99.90
2018-09-27T02:55:34.730Z,99.90
2018-09-27T02:57:39.413Z,99.90
2018-09-27T02:59:44.299Z,99.90
2018-09-27T03:01:49.224Z,99.90
2018-09-27T03:03:53.953Z,99.90
2018-09-27T03:05:58.658Z,99.90
2018-09-27T03:08:03.356Z,99.90
2018-09-27T03:10:08.116Z,99.90
2018-09-27T03:12:12.770Z,99.90
2018-09-27T03:14:17.459Z,99.90
2018-09-27T03:16:22.194Z,99.90
2018-09-27T03:18:26.922Z,99.90
2018-09-27T03:20:32.057Z,99.90
2018-09-27T03:22:36.898Z,99.90
2018-09-27T03:24:41.596Z,99.90
2018-09-27T03:26:46.264Z,99.90
2018-09-27T03:28:50.877Z,99.90
2018-09-27T03:30:55.570Z,99.90
2018-09-27T03:33:00.223Z,99.90
2018-09-27T03:35:05.041Z,99.90
2018-09-27T03:37:09.685Z,99.90
2018-09-27T03:39:14.301Z,99.90
2018-09-27T03:41:18.924Z,99.90
2018-09-27T03:43:23.582Z,99.90
2018-09-27T03:45:28.406Z,99.90
2018-09-27T03:47:33.102Z,99.90
2018-09-27T03:49:37.690Z,99.90
2018-09-27T03:51:42.746Z,99.90
2018-09-27T03:53:47.412Z,99.90
2018-09-27T03:55:52.102Z,99.90
2018-09-27T03:57:56.985Z,99.90
2018-09-27T04:00:01.942Z,99.90
2018-09-27T04:02:06.894Z,99.90
2018-09-27T04:04:11.658Z,99.90
2018-09-27T04:06:16.330Z,99.90
2018-09-27T04:08:21.030Z,99.90
2018-09-27T04:10:25.801Z,99.90
2018-09-27T04:12:30.686Z,99.90
2018-09-27T04:14:35.446Z,99.90
2018-09-27T04:16:40.286Z,99.90
2018-09-27T04:18:45.075Z,99.90
2018-09-27T04:20:51.371Z,99.90
2018-09-27T04:22:56.339Z,99.90
2018-09-27T04:25:00.990Z,99.90
2018-09-27T04:27:05.849Z,99.90
2018-09-27T04:29:10.620Z,99.90
2018-09-27T04:31:15.438Z,99.90
2018-09-27T04:33:20.241Z,99.90
2018-09-27T04:35:25.099Z,99.90
2018-09-27T04:37:30.006Z,99.90
2018-09-27T04:39:34.755Z,99.90
2018-09-27T04:41:39.651Z,99.90
2018-09-27T04:43:44.354Z,99.90
2018-09-27T04:45:49.052Z,99.90
2018-09-27T04:47:53.919Z,99.90
2018-09-27T04:49:58.625Z,99.90
2018-09-27T04:52:03.396Z,99.90
2018-09-27T04:54:08.193Z,99.90
2018-09-27T04:56:12.936Z,99.90
2018-09-27T04:58:17.575Z,99.90
2018-09-27T05:00:22.261Z,99.90
2018-09-27T05:02:26.949Z,99.90
2018-09-27T05:04:31.779Z,99.90
2018-09-27T05:06:36.550Z,99.90
2018-09-27T05:08:41.266Z,99.90
2018-09-27T05:10:46.047Z,99.90
2018-09-27T05:12:51.154Z,99.90
2018-09-27T05:14:56.044Z,99.90
2018-09-27T05:17:00.836Z,99.90
2018-09-27T05:19:05.659Z,99.90
2018-09-27T05:21:10.424Z,99.90
2018-09-27T05:23:15.177Z,99.90
2018-09-27T05:25:20.010Z,99.90
2018-09-27T05:27:24.913Z,99.90
2018-09-27T05:29:29.697Z,99.90
2018-09-27T05:31:34.319Z,99.90
2018-09-27T05:33:39.184Z,99.90
2018-09-27T05:35:43.982Z,99.90
2018-09-27T05:37:49.034Z,99.90
2018-09-27T05:39:53.861Z,99.90
2018-09-27T05:41:58.573Z,99.90
2018-09-27T05:44:03.669Z,99.90
2018-09-27T05:46:08.773Z,99.90
2018-09-27T05:48:13.744Z,99.90
2018-09-27T05:50:18.365Z,99.90
2018-09-27T05:52:23.191Z,99.90
2018-09-27T05:54:28.083Z,99.90
2018-09-27T05:56:33.031Z,99.90
2018-09-27T05:58:37.688Z,99.90
2018-09-27T06:00:42.346Z,99.90
2018-09-27T06:02:47.291Z,99.90
2018-09-27T06:04:52.090Z,99.90
2018-09-27T06:06:57.031Z,99.90
2018-09-27T06:09:02.037Z,99.90
2018-09-27T06:11:06.904Z,99.90
2018-09-27T06:13:11.605Z,99.90
2018-09-27T06:15:16.369Z,99.90
2018-09-27T06:17:21.159Z,99.90
2018-09-27T06:19:26.711Z,99.90
2018-09-27T06:21:31.674Z,99.90
2018-09-27T06:23:36.529Z,99.90
2018-09-27T06:25:41.475Z,99.90
2018-09-27T06:27:46.347Z,99.90
2018-09-27T06:29:51.129Z,99.90
2018-09-27T06:31:55.862Z,99.90
2018-09-27T06:34:00.663Z,99.90
2018-09-27T06:36:05.411Z,99.90
2018-09-27T06:38:10.177Z,99.90
2018-09-27T06:40:15.140Z,99.90
2018-09-27T06:42:19.887Z,99.90
2018-09-27T06:44:24.716Z,99.90
2018-09-27T06:46:29.552Z,99.90
2018-09-27T06:48:34.411Z,99.90
2018-09-27T06:50:39.324Z,99.90
2018-09-27T06:52:45.056Z,99.90
2018-09-27T06:54:50.198Z,99.90
2018-09-27T06:56:55.041Z,99.90
2018-09-27T06:59:00.013Z,99.90
2018-09-27T07:01:04.941Z,99.90
2018-09-27T07:03:09.932Z,99.90
2018-09-27T07:05:15.141Z,99.90
2018-09-27T07:07:20.286Z,99.90
2018-09-27T07:09:25.178Z,99.90
2018-09-27T07:11:30.821Z,99.90
2018-09-27T07:13:35.889Z,99.90
2018-09-27T07:15:40.708Z,99.90
2018-09-27T07:17:46.116Z,99.90
2018-09-27T07:19:51.153Z,99.90
2018-09-27T07:21:55.993Z,99.90
2018-09-27T07:24:01.007Z,99.90
2018-09-27T07:26:05.958Z,99.90
2018-09-27T07:28:10.957Z,99.90
2018-09-27T07:30:15.879Z,99.90
2018-09-27T07:32:20.600Z,99.90
2018-09-27T07:34:25.493Z,99.90
2018-09-27T07:36:30.272Z,99.90
2018-09-27T07:38:35.222Z,99.90
2018-09-27T07:40:40.052Z,99.90
2018-09-27T07:47:49.126Z,99.90
2018-09-27T07:49:53.973Z,99.90
2018-09-27T07:51:58.870Z,99.90
2018-09-27T07:54:03.886Z,99.90
2018-09-27T07:56:08.698Z,99.90
2018-09-27T07:58:13.454Z,99.90
2018-09-27T08:00:18.197Z,99.90
2018-09-27T08:02:23.182Z,99.90
2018-09-27T08:04:28.377Z,99.90
2018-09-27T08:06:33.115Z,99.90
2018-09-27T08:08:37.898Z,99.90
2018-09-27T08:10:42.563Z,99.90
2018-09-27T08:12:47.261Z,99.90
2018-09-27T08:14:51.868Z,99.90
2018-09-27T08:16:57.157Z,99.90
2018-09-27T08:19:01.947Z,99.90
2018-09-27T08:21:06.917Z,99.90
2018-09-27T08:23:11.573Z,99.90
2018-09-27T08:25:16.292Z,99.90
2018-09-27T08:27:20.930Z,99.50
2018-09-27T08:29:25.681Z,99.30
2018-09-27T08:31:30.515Z,99.10
2018-09-27T08:33:35.314Z,99.10
2018-09-27T08:35:40.007Z,98.90
2018-09-27T08:37:44.819Z,98.80
2018-09-27T08:39:49.695Z,98.80
2018-09-27T08:41:54.557Z,98.70
2018-09-27T08:43:59.802Z,98.50
2018-09-27T08:46:04.746Z,98.10
2018-09-27T08:48:09.817Z,98.20
2018-09-27T08:50:14.720Z,97.90
2018-09-27T08:52:19.594Z,97.70
2018-09-27T08:54:24.522Z,97.60
2018-09-27T08:56:29.452Z,97.20
2018-09-27T08:58:34.274Z,97.40
2018-09-27T09:00:39.075Z,96.50
2018-09-27T09:02:43.923Z,96.50
2018-09-27T09:04:48.806Z,96.50
2018-09-27T09:06:53.589Z,96.50
2018-09-27T09:08:58.456Z,96.40
2018-09-27T09:11:03.314Z,96.30
2018-09-27T09:13:08.312Z,95.90
2018-09-27T09:15:13.399Z,95.30
2018-09-27T09:17:18.310Z,95.40
2018-09-27T09:19:23.103Z,95.20
2018-09-27T09:21:27.963Z,95.00
2018-09-27T09:23:32.748Z,94.90
2018-09-27T09:25:37.569Z,94.70
2018-09-27T09:27:42.459Z,94.40
2018-09-27T09:29:47.919Z,94.10
2018-09-27T09:31:53.059Z,94.00
2018-09-27T09:33:58.031Z,93.90
2018-09-27T09:36:03.016Z,93.50
2018-09-27T09:38:07.923Z,93.30
2018-09-27T09:40:12.702Z,92.90
2018-09-27T09:42:17.739Z,92.80
2018-09-27T09:44:22.886Z,92.80
2018-09-27T09:46:27.741Z,92.60
2018-09-27T09:48:32.750Z,92.40
2018-09-27T09:50:37.605Z,92.40
2018-09-27T09:52:42.447Z,92.20
2018-09-27T09:54:47.451Z,92.10
2018-09-27T09:56:53.214Z,92.00
2018-09-27T09:58:58.210Z,91.80
2018-09-27T10:01:03.172Z,91.80
2018-09-27T10:03:09.210Z,91.60
2018-09-27T10:05:14.299Z,91.30
2018-09-27T10:07:19.496Z,90.80
2018-09-27T10:09:24.404Z,90.40
2018-09-27T10:11:29.315Z,90.40
2018-09-27T10:13:34.131Z,90.20
2018-09-27T10:15:38.993Z,90.20
2018-09-27T10:17:43.838Z,90.30
2018-09-27T10:19:48.860Z,90.20
2018-09-27T10:21:53.795Z,90.00
2018-09-27T10:23:58.941Z,90.00
2018-09-27T10:26:04.000Z,90.00
2018-09-27T10:28:09.197Z,89.30
2018-09-27T10:30:15.083Z,88.60
2018-09-27T10:32:20.015Z,88.40
2018-09-27T10:34:24.808Z,88.00
2018-09-27T10:36:29.762Z,87.70
2018-09-27T10:38:34.473Z,87.20
2018-09-27T10:40:39.428Z,85.90
2018-09-27T10:42:46.466Z,85.00
2018-09-27T10:44:51.383Z,84.30
2018-09-27T10:46:56.240Z,84.00
2018-09-27T10:49:01.018Z,84.00
2018-09-27T10:51:05.830Z,83.40
2018-09-27T10:53:10.643Z,83.20
2018-09-27T10:55:15.542Z,82.60
2018-09-27T10:57:20.986Z,81.80
2018-09-27T10:59:25.831Z,82.00
2018-09-27T11:01:30.855Z,81.10
2018-09-27T11:03:35.727Z,79.80
2018-09-27T11:05:40.749Z,78.90
2018-09-27T11:07:45.951Z,78.50
2018-09-27T11:09:51.609Z,77.20
2018-09-27T11:11:56.567Z,76.90
2018-09-27T11:14:01.559Z,77.50
2018-09-27T11:16:06.539Z,78.70
2018-09-27T11:18:11.307Z,78.20
2018-09-27T11:20:16.613Z,77.30
2018-09-27T11:22:21.451Z,76.60
2018-09-27T11:24:26.340Z,74.80
2018-09-27T11:26:31.487Z,74.20
2018-09-27T11:28:41.161Z,74.30
2018-09-27T11:30:45.999Z,74.70
2018-09-27T11:32:50.837Z,74.20
2018-09-27T11:34:55.770Z,73.70
2018-09-27T11:37:00.592Z,73.20
2018-09-27T11:39:07.944Z,73.50
2018-09-27T11:41:12.727Z,73.40
2018-09-27T11:43:17.445Z,72.20
2018-09-27T11:45:22.171Z,71.40
2018-09-27T11:47:26.848Z,71.30
2018-09-27T11:49:31.882Z,71.50
2018-09-27T11:51:36.632Z,71.20
2018-09-27T11:53:41.388Z,70.60
2018-09-27T11:55:46.265Z,69.00
2018-09-27T11:57:51.259Z,69.10
2018-09-27T11:59:56.715Z,66.80
2018-09-27T12:02:01.478Z,68.10
2018-09-27T12:04:06.216Z,66.40
2018-09-27T12:06:11.104Z,67.00
2018-09-27T12:08:16.120Z,67.50
2018-09-27T12:10:21.040Z,68.10
2018-09-27T12:12:25.988Z,69.60
2018-09-27T12:14:31.083Z,69.70
2018-09-27T12:16:36.050Z,69.50
2018-09-27T12:18:41.117Z,69.10
2018-09-27T12:20:45.894Z,68.30
2018-09-27T12:22:50.796Z,66.80
2018-09-27T12:24:55.643Z,64.80
2018-09-27T12:27:00.383Z,64.20
2018-09-27T12:29:05.184Z,64.50
2018-09-27T12:31:10.181Z,64.50
2018-09-27T12:33:15.367Z,64.80
2018-09-27T12:35:20.348Z,64.10
2018-09-27T12:37:25.290Z,62.80
2018-09-27T12:39:30.167Z,62.20
2018-09-27T12:41:34.998Z,62.30
2018-09-27T12:43:40.000Z,58.20
2018-09-27T12:45:45.174Z,57.00
2018-09-27T12:47:50.467Z,56.70
2018-09-27T12:49:55.222Z,55.80
2018-09-27T12:52:00.973Z,55.60
2018-09-27T12:54:06.032Z,56.00
2018-09-27T12:56:10.947Z,56.20
2018-09-27T12:58:15.847Z,57.00
2018-09-27T13:00:20.840Z,57.80
2018-09-27T13:02:25.691Z,58.10
2018-09-27T13:04:30.622Z,58.30
2018-09-27T13:06:35.659Z,58.20
2018-09-27T13:08:40.889Z,57.70
2018-09-27T13:10:45.722Z,58.00
2018-09-27T13:12:50.589Z,56.60
2018-09-27T13:14:55.480Z,55.80
2018-09-27T13:17:00.682Z,56.10
2018-09-27T13:19:05.914Z,56.30
2018-09-27T13:21:10.689Z,56.00
2018-09-27T13:23:15.522Z,55.70
2018-09-27T13:25:20.335Z,56.30
2018-09-27T13:27:25.151Z,56.30
2018-09-27T13:29:29.914Z,55.90
2018-09-27T13:31:35.121Z,56.20
2018-09-27T13:33:40.138Z,56.00
2018-09-27T13:35:45.230Z,56.50
2018-09-27T13:37:50.168Z,56.20
2018-09-27T13:39:55.170Z,55.80
2018-09-27T13:42:00.032Z,53.60
2018-09-27T13:44:05.040Z,53.20
2018-09-27T13:46:10.114Z,54.70
2018-09-27T13:48:15.132Z,55.10
2018-09-27T13:50:20.327Z,53.80
2018-09-27T13:52:25.453Z,53.50
2018-09-27T13:54:30.529Z,53.00
2018-09-27T13:56:35.642Z,53.00
2018-09-27T13:58:40.539Z,52.30
2018-09-27T14:00:52.255Z,52.10
2018-09-27T14:02:57.608Z,52.00
2018-09-27T14:05:02.722Z,52.30
2018-09-27T14:07:07.867Z,52.00
2018-09-27T14:09:12.666Z,50.50
2018-09-27T14:11:17.495Z,51.20
2018-09-27T14:13:22.339Z,51.60
2018-09-27T14:15:27.101Z,50.90
2018-09-27T14:17:31.822Z,50.50
2018-09-27T14:19:36.604Z,49.60
2018-09-27T14:21:41.484Z,50.00
2018-09-27T14:23:46.559Z,50.00
2018-09-27T14:25:52.107Z,50.10
2018-09-27T14:27:56.986Z,51.00
2018-09-27T14:30:01.849Z,52.40
2018-09-27T14:32:06.965Z,51.90
2018-09-27T14:34:11.753Z,52.40
2018-09-27T14:36:17.126Z,53.10
2018-09-27T14:38:21.922Z,53.10
2018-09-27T14:40:26.650Z,52.60
2018-09-27T14:42:31.556Z,52.70
2018-09-27T14:44:36.397Z,53.00
2018-09-27T14:46:41.251Z,52.10
2018-09-27T14:48:45.903Z,51.90
2018-09-27T14:50:50.618Z,52.00
2018-09-27T14:52:55.371Z,52.20
2018-09-27T14:55:00.083Z,52.50
2018-09-27T14:57:05.026Z,53.10
2018-09-27T14:59:09.744Z,54.20
2018-09-27T15:01:14.586Z,54.10
2018-09-27T15:03:19.579Z,53.20
2018-09-27T15:05:24.403Z,53.00
2018-09-27T15:07:29.197Z,52.80
2018-09-27T15:09:34.200Z,52.90
2018-09-27T15:11:38.944Z,53.70
2018-09-27T15:13:43.828Z,52.90
2018-09-27T15:15:48.544Z,52.00
2018-09-27T15:17:53.320Z,51.00
2018-09-27T15:19:58.014Z,51.70
2018-09-27T15:22:02.881Z,51.90
2018-09-27T15:24:07.836Z,49.60
2018-09-27T15:26:12.619Z,50.20
2018-09-27T15:28:17.294Z,50.40
2018-09-27T15:30:22.202Z,50.30
2018-09-27T15:32:27.066Z,51.50
2018-09-27T15:34:32.001Z,52.20
2018-09-27T15:36:36.976Z,52.20
2018-09-27T15:38:42.023Z,51.60
2018-09-27T15:40:46.906Z,51.20
2018-09-27T15:42:52.053Z,50.90
2018-09-27T15:44:57.166Z,50.70
2018-09-27T15:47:02.073Z,50.00
2018-09-27T15:49:06.906Z,49.60
2018-09-27T15:51:11.707Z,49.80
2018-09-27T15:53:16.566Z,49.20
2018-09-27T15:55:21.513Z,50.00
2018-09-27T15:57:26.478Z,50.30
2018-09-27T15:59:31.401Z,50.60
2018-09-27T16:01:36.708Z,50.70
2018-09-27T16:03:41.525Z,51.40
2018-09-27T16:05:46.663Z,51.50
2018-09-27T16:07:52.073Z,52.20
2018-09-27T16:09:56.788Z,52.30
2018-09-27T16:12:07.515Z,52.50
2018-09-27T16:14:13.643Z,52.90
2018-09-27T16:16:18.961Z,53.00
2018-09-27T16:18:24.855Z,53.30
2018-09-27T16:20:29.740Z,53.10
2018-09-27T16:22:34.905Z,53.30
2018-09-27T16:24:39.727Z,53.40
2018-09-27T16:26:44.651Z,53.10
2018-09-27T16:28:49.640Z,53.10
2018-09-27T16:30:54.470Z,53.80
2018-09-27T16:32:59.206Z,53.90
2018-09-27T16:35:04.116Z,54.10
2018-09-27T16:37:08.946Z,54.30
2018-09-27T16:39:14.217Z,54.50
2018-09-27T16:41:18.858Z,54.90
2018-09-27T16:43:23.563Z,54.70
2018-09-27T16:45:28.321Z,54.50
2018-09-27T16:47:33.208Z,55.00
2018-09-27T16:49:37.900Z,55.60
2018-09-27T16:51:42.839Z,55.00
2018-09-27T16:53:47.818Z,55.50
2018-09-27T16:55:53.090Z,54.70
2018-09-27T16:57:57.862Z,55.30
2018-09-27T17:00:02.623Z,55.40
2018-09-27T17:02:07.620Z,56.00
2018-09-27T17:04:12.613Z,56.20
2018-09-27T17:06:17.557Z,56.50
2018-09-27T17:08:22.659Z,57.50
2018-09-27T17:10:27.419Z,57.40
2018-09-27T17:12:32.156Z,58.10
2018-09-27T17:14:36.935Z,58.20
2018-09-27T17:16:41.763Z,58.10
2018-09-27T17:18:46.665Z,58.30
2018-09-27T17:20:52.967Z,58.50
2018-09-27T17:22:57.847Z,59.20
2018-09-27T17:25:03.059Z,59.60
2018-09-27T17:27:08.391Z,60.00
2018-09-27T17:29:13.258Z,60.40
2018-09-27T17:31:18.113Z,60.80
2018-09-27T17:33:23.124Z,61.40
2018-09-27T17:35:28.032Z,61.60
2018-09-27T17:37:33.076Z,61.90
2018-09-27T17:39:38.748Z,62.50
2018-09-27T17:41:43.511Z,63.00
2018-09-27T17:43:48.308Z,63.40
2018-09-27T17:45:53.423Z,63.70
2018-09-27T17:47:58.849Z,64.20
2018-09-27T17:50:03.834Z,64.70
2018-09-27T17:52:09.152Z,65.30
2018-09-27T17:54:14.217Z,65.70
2018-09-27T17:56:19.550Z,66.00
2018-09-27T17:58:24.570Z,66.40
2018-09-27T18:00:29.560Z,66.60
2018-09-27T18:02:34.309Z,67.10
2018-09-27T18:04:39.252Z,68.10
2018-09-27T18:06:44.153Z,69.10
2018-09-27T18:08:49.110Z,70.10
2018-09-27T18:10:56.840Z,70.90
2018-09-27T18:13:02.019Z,71.40
2018-09-27T18:15:07.053Z,72.10
2018-09-27T18:17:12.277Z,72.50
2018-09-27T18:19:18.427Z,73.10
2018-09-27T18:21:23.809Z,73.60
2018-09-27T18:23:29.538Z,74.30
2018-09-27T18:25:34.685Z,74.90
2018-09-27T18:27:40.550Z,75.60
2018-09-27T18:29:45.944Z,76.20
2018-09-27T18:31:50.829Z,76.90
2018-09-27T18:33:55.693Z,77.60
2018-09-27T18:36:01.638Z,78.00
2018-09-27T18:38:06.937Z,78.60
2018-09-27T18:40:12.927Z,79.30
2018-09-27T18:42:18.474Z,79.90
2018-09-27T18:44:24.129Z,80.60
2018-09-27T18:46:29.988Z,81.40
2018-09-27T18:48:38.795Z,82.40
2018-09-27T18:50:44.846Z,82.90
2018-09-27T18:52:51.963Z,83.70
2018-09-27T18:54:57.685Z,84.80
2018-09-27T18:57:04.259Z,85.40
2018-09-27T18:59:13.647Z,86.10
2018-09-27T19:01:18.839Z,87.20
2018-09-27T19:03:28.862Z,88.20
2018-09-27T19:05:37.700Z,89.80
2018-09-27T19:07:45.437Z,90.00
2018-09-27T19:09:50.781Z,90.20
2018-09-27T19:11:56.886Z,90.60
2018-09-27T19:14:03.316Z,90.90
2018-09-27T19:16:10.485Z,91.30
2018-09-27T19:18:16.392Z,91.70
2018-09-27T19:20:23.045Z,92.20
2018-09-27T19:22:30.326Z,92.70
2018-09-27T19:24:36.139Z,93.20
2018-09-27T19:26:43.379Z,93.50
2018-09-27T19:28:49.878Z,93.90
2018-09-27T19:30:57.476Z,94.30
2018-09-27T19:33:06.370Z,94.70
2018-09-27T19:35:12.419Z,95.20
2018-09-27T19:37:18.841Z,95.50
2018-09-27T19:39:24.753Z,95.90
2018-09-27T19:41:33.175Z,96.20
2018-09-27T19:43:38.374Z,96.50
2018-09-27T19:45:43.397Z,96.90
2018-09-27T19:47:53.905Z,97.20
2018-09-27T19:49:59.176Z,97.50
2018-09-27T19:52:04.713Z,97.80
2018-09-27T19:54:11.167Z,98.30
2018-09-27T19:56:18.317Z,98.50
2018-09-27T19:58:23.895Z,98.70
2018-09-27T20:00:32.234Z,98.90
2018-09-27T20:02:37.635Z,99.20
2018-09-27T20:04:43.190Z,99.40
2018-09-27T20:06:48.127Z,99.60
2018-09-27T20:08:53.864Z,99.90
2018-09-27T20:10:58.766Z,99.90
2018-09-27T20:13:04.249Z,99.90
2018-09-27T20:15:09.062Z,99.90
2018-09-27T20:17:14.025Z,99.90
2018-09-27T20:19:19.068Z,99.90
2018-09-27T20:21:23.843Z,99.90
2018-09-27T20:23:28.808Z,99.90
2018-09-27T20:25:34.042Z,99.90
2018-09-27T20:27:38.823Z,99.90
2018-09-27T20:29:43.978Z,99.90
2018-09-27T20:31:49.023Z,99.90
2018-09-27T20:33:54.174Z,99.90
2018-09-27T20:35:59.389Z,99.90
2018-09-27T20:38:04.193Z,99.90
2018-09-27T20:40:09.573Z,99.90
2018-09-27T20:42:15.053Z,99.90
2018-09-27T20:44:19.969Z,99.90
2018-09-27T20:46:24.933Z,99.90
2018-09-27T20:48:29.856Z,99.90
2018-09-27T20:52:35.092Z,99.90
2018-09-27T20:54:40.361Z,99.90
2018-09-27T20:56:45.613Z,99.90
2018-09-27T20:58:51.118Z,99.90
2018-09-27T21:00:56.361Z,99.90
2018-09-27T21:03:01.377Z,99.90
2018-09-27T21:05:06.164Z,99.90
2018-09-27T21:07:11.001Z,99.90
2018-09-27T21:09:15.766Z,99.90
2018-09-27T21:11:21.056Z,99.90
2018-09-27T21:13:26.349Z,99.90
2018-09-27T21:15:31.735Z,99.90
2018-09-27T21:17:36.704Z,99.90
2018-09-27T21:19:42.051Z,99.90
2018-09-27T21:21:47.409Z,99.90
2018-09-27T21:23:52.383Z,99.90
2018-09-27T21:25:57.219Z,99.90
2018-09-27T21:28:02.087Z,99.90
2018-09-27T21:30:07.406Z,99.90
2018-09-27T21:32:12.230Z,99.90
2018-09-27T21:34:17.424Z,99.90
2018-09-27T21:36:22.161Z,99.90
2018-09-27T21:38:26.994Z,99.90
2018-09-27T21:40:31.919Z,99.90
2018-09-27T21:42:37.322Z,99.90
2018-09-27T21:44:42.116Z,99.90
2018-09-27T21:46:46.927Z,99.90
2018-09-27T21:48:58.199Z,99.90
2018-09-27T21:51:02.902Z,99.90
2018-09-27T21:53:14.287Z,99.90
2018-09-27T21:55:20.137Z,99.90
2018-09-27T21:57:26.351Z,99.90
2018-09-27T21:59:31.061Z,99.90
2018-09-27T22:01:36.112Z,99.90
2018-09-27T22:03:40.830Z,99.90
2018-09-27T22:05:45.730Z,99.90
2018-09-27T22:07:50.407Z,99.90
2018-09-27T22:09:58.352Z,99.90
2018-09-27T22:12:04.161Z,99.90
2018-09-27T22:14:08.958Z,99.90
2018-09-27T22:16:13.689Z,99.90
2018-09-27T22:18:18.479Z,99.90
2018-09-27T22:20:23.185Z,99.90
2018-09-27T22:22:27.973Z,99.90
2018-09-27T22:24:32.744Z,99.90
2018-09-27T22:26:37.533Z,99.90
2018-09-27T22:28:42.355Z,99.90
2018-09-27T22:30:47.065Z,99.90
2018-09-27T22:32:51.802Z,99.90
2018-09-27T22:34:56.638Z,99.90
2018-09-27T22:37:01.422Z,99.90
2018-09-27T22:39:07.357Z,99.90
2018-09-27T22:41:12.108Z,99.90
2018-09-27T22:43:16.885Z,99.90
2018-09-27T22:45:21.951Z,99.90
2018-09-27T22:47:26.632Z,99.90
2018-09-27T22:49:31.305Z,99.90
2018-09-27T22:51:35.969Z,99.90
2018-09-27T22:53:41.083Z,99.90
2018-09-27T22:55:45.743Z,99.90
2018-09-27T22:57:50.594Z,99.90
2018-09-27T22:59:55.239Z,99.90
2018-09-27T23:01:59.985Z,99.90
2018-09-27T23:04:04.878Z,99.90
2018-09-27T23:06:09.623Z,99.90
2018-09-27T23:08:14.374Z,99.90
2018-09-27T23:10:19.041Z,99.90
2018-09-27T23:12:24.145Z,99.90
2018-09-27T23:14:28.790Z,99.90
2018-09-27T23:16:33.578Z,99.90
2018-09-27T23:18:38.332Z,99.90
2018-09-27T23:20:43.221Z,99.90
2018-09-27T23:22:47.998Z,99.90
2018-09-27T23:24:52.897Z,99.90
2018-09-27T23:26:57.682Z,99.90
2018-09-27T23:29:02.452Z,99.90
2018-09-27T23:31:07.294Z,99.90
2018-09-27T23:33:12.140Z,99.90
2018-09-27T23:35:17.017Z,99.90
2018-09-27T23:37:21.978Z,99.90
2018-09-27T23:39:26.734Z,99.90
2018-09-27T23:41:31.609Z,99.90
2018-09-27T23:43:36.618Z,99.90
2018-09-27T23:45:41.569Z,99.90
2018-09-27T23:47:46.389Z,99.90
2018-09-27T23:49:51.291Z,99.90
2018-09-27T23:51:56.004Z,99.90
2018-09-27T23:54:00.679Z,99.90
2018-09-27T23:56:05.501Z,99.90
2018-09-27T23:58:14.002Z,99.90
